createdAt,value
2018-06-15T00:01:02.296Z,98194.89
2018-06-15T00:03:34.077Z,98188.20
2018-06-15T00:06:03.715Z,98193.09
2018-06-15T00:08:33.632Z,98192.62
2018-06-15T00:11:03.605Z,98193.66
2018-06-15T00:13:33.767Z,98192.10
2018-06-15T00:16:03.793Z,98186.47
2018-06-15T00:18:35.101Z,98186.94
2018-06-15T00:21:06.178Z,98190.73
2018-06-15T00:23:36.256Z,98191.55
2018-06-15T00:26:06.214Z,98186.96
2018-06-15T00:28:35.948Z,98192.31
2018-06-15T00:31:05.560Z,98191.15
2018-06-15T00:33:36.289Z,98188.59
2018-06-15T00:36:08.292Z,98187.03
2018-06-15T00:38:38.066Z,98189.91
2018-06-15T00:41:08.855Z,98185.34
2018-06-15T00:43:39.738Z,98188.19
2018-06-15T00:46:09.823Z,98183.41
2018-06-15T00:48:40.747Z,98186.66
2018-06-15T00:51:10.501Z,98181.24
2018-06-15T00:53:40.546Z,98183.30
2018-06-15T00:56:10.481Z,98184.47
2018-06-15T00:58:41.345Z,98184.09
2018-06-15T01:01:11.740Z,98172.52
2018-06-15T01:03:41.438Z,98176.09
2018-06-15T01:06:11.907Z,98165.13
2018-06-15T01:08:41.584Z,98172.17
2018-06-15T01:11:11.264Z,98167.01
2018-06-15T01:13:41.326Z,98166.79
2018-06-15T01:16:11.010Z,98163.00
2018-06-15T01:18:40.733Z,98164.31
2018-06-15T01:21:10.412Z,98160.70
2018-06-15T01:23:40.204Z,98163.89
2018-06-15T01:26:10.276Z,98159.01
2018-06-15T01:28:42.994Z,98163.42
2018-06-15T01:31:12.865Z,98156.44
2018-06-15T01:33:42.506Z,98163.89
2018-06-15T01:36:12.625Z,98163.07
2018-06-15T01:38:42.539Z,98164.64
2018-06-15T01:41:12.263Z,98171.92
2018-06-15T01:43:44.337Z,98176.86
2018-06-15T01:46:14.281Z,98186.40
2018-06-15T01:48:43.892Z,98180.81
2018-06-15T01:51:18.295Z,98150.09
2018-06-15T01:53:47.927Z,98189.97
2018-06-15T01:56:18.086Z,98194.69
2018-06-15T01:58:47.818Z,98198.11
2018-06-15T02:01:18.960Z,98193.82
2018-06-15T02:03:48.647Z,98186.84
2018-06-15T02:06:18.406Z,98188.41
2018-06-15T02:08:48.067Z,98189.19
2018-06-15T02:11:17.934Z,98192.22
2018-06-15T02:13:47.585Z,98192.06
2018-06-15T02:16:17.802Z,98190.91
2018-06-15T02:18:47.517Z,98186.12
2018-06-15T02:21:21.304Z,98174.79
2018-06-15T02:23:51.140Z,98174.28
2018-06-15T02:26:22.280Z,98177.25
2018-06-15T02:28:54.511Z,98176.28
2018-06-15T02:31:24.169Z,98186.06
2018-06-15T02:33:53.882Z,98175.39
2018-06-15T02:36:23.560Z,98178.11
2018-06-15T02:38:53.180Z,98174.16
2018-06-15T02:41:23.163Z,98169.42
2018-06-15T02:43:53.380Z,98167.60
2018-06-15T02:46:23.096Z,98161.30
2018-06-15T02:48:52.810Z,98165.39
2018-06-15T02:51:27.992Z,98158.95
2018-06-15T02:53:57.652Z,98161.12
2018-06-15T02:56:27.954Z,98167.17
2018-06-15T02:58:57.756Z,98169.89
2018-06-15T03:01:31.175Z,98170.23
2018-06-15T03:04:02.497Z,98166.97
2018-06-15T03:06:32.417Z,98176.79
2018-06-15T03:09:04.720Z,98176.79
2018-06-15T03:11:34.498Z,98171.84
2018-06-15T03:14:04.290Z,98172.52
2018-06-15T03:16:35.345Z,98169.05
2018-06-15T03:19:05.107Z,98164.64
2018-06-15T03:21:35.825Z,98160.95
2018-06-15T03:27:00.563Z,98164.12
2018-06-15T03:29:31.398Z,98157.77
2018-06-15T03:32:02.261Z,98164.21
2018-06-15T03:34:33.417Z,98163.53
2018-06-15T03:37:03.939Z,98172.50
2018-06-15T03:39:34.628Z,98177.07
2018-06-15T03:42:05.522Z,98174.48
2018-06-15T03:44:36.101Z,98179.73
2018-06-15T03:47:06.940Z,98177.11
2018-06-15T03:49:37.557Z,98182.27
2018-06-15T03:52:09.834Z,98171.70
2018-06-15T03:54:40.332Z,98174.45
2018-06-15T03:57:11.120Z,98175.98
2018-06-15T03:59:43.101Z,98171.17
2018-06-15T04:02:14.069Z,98180.11
2018-06-15T04:04:47.500Z,98176.89
2018-06-15T04:07:18.136Z,98176.39
2018-06-15T04:09:50.482Z,98182.32
2018-06-15T04:12:22.653Z,98180.45
2018-06-15T04:14:53.400Z,98190.70
2018-06-15T04:17:25.065Z,98185.74
2018-06-15T04:19:55.644Z,98185.53
2018-06-15T04:22:26.425Z,98182.55
2018-06-15T04:24:58.107Z,98176.20
2018-06-15T04:27:30.072Z,98181.12
2018-06-15T04:30:00.747Z,98175.42
2018-06-15T04:32:31.718Z,98163.89
2018-06-15T04:35:07.201Z,98165.33
2018-06-15T04:37:37.758Z,98171.20
2018-06-15T04:40:08.529Z,98171.48
2018-06-15T04:42:40.164Z,98177.83
2018-06-15T04:45:10.788Z,98174.66
2018-06-15T04:47:42.170Z,98177.77
2018-06-15T04:50:17.261Z,98173.97
2018-06-15T04:52:47.810Z,98176.88
2018-06-15T04:55:18.870Z,98178.19
2018-06-15T04:57:49.529Z,98177.06
2018-06-15T05:00:20.201Z,98171.95
2018-06-15T05:02:50.829Z,98171.24
2018-06-15T05:05:21.707Z,98165.53
2018-06-15T05:07:54.564Z,98171.17
2018-06-15T05:10:26.156Z,98173.82
2018-06-15T05:12:57.085Z,98177.08
2018-06-15T05:15:28.166Z,98175.76
2018-06-15T05:17:59.246Z,98177.09
2018-06-15T05:20:30.188Z,98183.20
2018-06-15T05:23:00.820Z,98186.35
2018-06-15T05:25:31.640Z,98181.80
2018-06-15T05:31:42.216Z,98181.11
2018-06-15T05:34:14.037Z,98185.53
2018-06-15T05:36:47.137Z,98184.24
2018-06-15T05:39:17.785Z,98189.17
2018-06-15T05:41:50.029Z,98194.67
2018-06-15T05:44:21.429Z,98198.15
2018-06-15T05:46:52.201Z,98196.35
2018-06-15T05:49:24.207Z,98199.70
2018-06-15T05:51:56.067Z,98191.55
2018-06-15T05:54:26.691Z,98196.10
2018-06-15T05:56:58.039Z,98193.59
2018-06-15T05:59:32.532Z,98195.47
2018-06-15T06:02:04.447Z,98205.04
2018-06-15T06:04:35.523Z,98206.61
2018-06-15T06:07:07.487Z,98214.61
2018-06-15T06:09:38.426Z,98209.80
2018-06-15T06:12:09.573Z,98216.14
2018-06-15T06:14:40.142Z,98216.51
2018-06-15T06:17:11.623Z,98219.50
2018-06-15T06:19:43.322Z,98218.37
2018-06-15T06:22:14.431Z,98216.91
2018-06-15T06:24:46.424Z,98213.56
2018-06-15T06:27:19.206Z,98217.61
2018-06-15T06:29:49.984Z,98225.52
2018-06-15T06:32:21.555Z,98223.25
2018-06-15T06:34:54.909Z,98223.36
2018-06-15T06:37:25.773Z,98228.84
2018-06-15T06:39:57.228Z,98221.73
2018-06-15T06:42:28.333Z,98227.91
2018-06-15T06:44:59.426Z,98229.93
2018-06-15T06:47:32.781Z,98235.00
2018-06-15T06:50:07.391Z,98235.25
2018-06-15T06:52:38.084Z,98241.97
2018-06-15T06:55:09.515Z,98242.25
2018-06-15T06:57:42.224Z,98239.38
2018-06-15T07:00:14.118Z,98238.28
2018-06-15T07:02:45.529Z,98242.20
2018-06-15T07:05:16.953Z,98242.48
2018-06-15T07:07:53.484Z,98239.93
2018-06-15T07:10:24.381Z,98242.05
2018-06-15T07:12:55.702Z,98235.05
2018-06-15T07:15:26.925Z,98242.33
2018-06-15T07:17:57.900Z,98235.03
2018-06-15T07:20:29.153Z,98231.80
2018-06-15T07:23:00.934Z,98236.62
2018-06-15T07:25:33.090Z,98232.23
2018-06-15T07:28:03.893Z,98241.08
2018-06-15T07:30:34.625Z,98240.31
2018-06-15T07:33:08.876Z,98237.38
2018-06-15T07:35:40.549Z,98234.08
2018-06-15T07:38:17.374Z,98240.05
2018-06-15T07:40:50.468Z,98241.62
2018-06-15T07:43:21.178Z,98240.22
2018-06-15T07:45:53.435Z,98239.25
2018-06-15T07:48:25.579Z,98241.07
2018-06-15T07:50:57.304Z,98241.69
2018-06-15T07:53:28.285Z,98245.02
2018-06-15T07:56:02.425Z,98244.69
2018-06-15T07:58:33.181Z,98248.70
2018-06-15T08:01:04.089Z,98257.02
2018-06-15T08:03:36.570Z,98255.26
2018-06-15T08:06:07.959Z,98250.98
2018-06-15T08:08:39.103Z,98247.34
2018-06-15T08:11:10.776Z,98248.27
2018-06-15T08:13:43.137Z,98247.73
2018-06-15T08:16:13.966Z,98250.48
2018-06-15T08:18:45.660Z,98245.11
2018-06-15T08:21:17.646Z,98251.28
2018-06-15T08:23:49.864Z,98253.34
2018-06-15T08:26:21.419Z,98248.06
2018-06-15T08:28:53.639Z,98255.83
2018-06-15T08:31:24.821Z,98262.75
2018-06-15T08:33:55.874Z,98260.16
2018-06-15T08:36:28.419Z,98252.18
2018-06-15T08:38:59.292Z,98257.33
2018-06-15T08:41:30.238Z,98248.30
2018-06-15T08:44:02.236Z,98245.27
2018-06-15T08:46:36.097Z,98251.16
2018-06-15T08:49:08.152Z,98248.47
2018-06-15T08:51:39.803Z,98246.37
2018-06-15T08:54:11.641Z,98243.64
2018-06-15T08:56:42.467Z,98253.66
2018-06-15T08:59:14.687Z,98247.78
2018-06-15T09:01:47.566Z,98246.22
2018-06-15T09:04:19.459Z,98244.94
2018-06-15T09:06:54.206Z,98246.41
2018-06-15T09:09:25.927Z,98247.09
2018-06-15T09:12:02.445Z,98244.84
2018-06-15T09:14:33.476Z,98245.61
2018-06-15T09:17:04.257Z,98242.65
2018-06-15T09:19:37.111Z,98237.25
2018-06-15T09:22:07.825Z,98247.13
2018-06-15T09:24:39.830Z,98245.23
2018-06-15T09:27:11.929Z,98256.88
2018-06-15T09:29:51.164Z,98250.76
2018-06-15T09:32:22.254Z,98252.34
2018-06-15T09:34:53.750Z,98250.75
2018-06-15T09:37:27.263Z,98259.04
2018-06-15T09:39:58.474Z,98262.19
2018-06-15T09:42:29.670Z,98251.31
2018-06-15T09:45:00.521Z,98255.84
2018-06-15T09:47:39.230Z,98248.28
2018-06-15T09:50:10.347Z,98258.40
2018-06-15T09:52:42.562Z,98250.45
2018-06-15T09:55:14.472Z,98249.03
2018-06-15T09:57:47.223Z,98243.05
2018-06-15T10:00:22.702Z,98248.91
2018-06-15T10:02:53.360Z,98245.38
2018-06-15T10:05:27.200Z,98242.59
2018-06-15T10:07:59.344Z,98250.53
2018-06-15T10:10:32.434Z,98250.23
2018-06-15T10:13:04.607Z,98246.05
2018-06-15T10:15:38.210Z,98244.73
2018-06-15T10:18:09.704Z,98244.45
2018-06-15T10:20:41.760Z,98241.75
2018-06-15T10:23:12.790Z,98247.84
2018-06-15T10:25:44.835Z,98247.30
2018-06-15T10:28:16.685Z,98243.17
2018-06-15T10:30:47.605Z,98243.61
2018-06-15T10:33:20.211Z,98243.22
2018-06-15T10:35:54.105Z,98238.98
2018-06-15T10:38:28.346Z,98240.16
2018-06-15T10:41:00.218Z,98232.70
2018-06-15T10:43:34.427Z,98238.77
2018-06-15T10:46:05.787Z,98235.73
2018-06-15T10:48:37.645Z,98243.30
2018-06-15T10:51:10.101Z,98237.81
2018-06-15T10:53:43.998Z,98239.41
2018-06-15T10:56:15.546Z,98241.13
2018-06-15T10:58:46.696Z,98243.12
2018-06-15T11:01:18.569Z,98239.92
2018-06-15T11:03:50.520Z,98242.25
2018-06-15T11:06:22.647Z,98232.92
2018-06-15T11:08:54.435Z,98230.03
2018-06-15T11:11:25.191Z,98222.12
2018-06-15T11:13:56.465Z,98223.58
2018-06-15T11:16:28.817Z,98229.44
2018-06-15T11:19:02.979Z,98222.39
2018-06-15T11:21:36.410Z,98225.48
2018-06-15T11:24:08.499Z,98221.75
2018-06-15T11:26:39.621Z,98219.36
2018-06-15T11:29:11.131Z,98207.41
2018-06-15T11:31:46.557Z,98207.52
2018-06-15T11:34:18.224Z,98203.31
2018-06-15T11:36:49.307Z,98203.58
2018-06-15T11:39:20.420Z,98194.39
2018-06-15T11:41:50.978Z,98198.40
2018-06-15T11:44:23.273Z,98192.41
2018-06-15T11:46:54.387Z,98194.36
2018-06-15T11:49:26.234Z,98202.25
2018-06-15T11:51:57.204Z,98205.88
2018-06-15T11:54:29.659Z,98203.19
2018-06-15T11:57:00.416Z,98204.70
2018-06-15T11:59:31.049Z,98207.02
2018-06-15T12:02:04.547Z,98210.79
2018-06-15T12:04:41.462Z,98206.34
2018-06-15T12:07:14.186Z,98210.36
2018-06-15T12:09:51.701Z,98212.10
2018-06-15T12:12:22.717Z,98213.64
2018-06-15T12:14:53.469Z,98219.29
2018-06-15T12:17:24.499Z,98219.50
2018-06-15T12:20:00.764Z,98224.91
2018-06-15T12:22:33.536Z,98221.85
2018-06-15T12:25:06.581Z,98220.20
2018-06-15T12:27:40.203Z,98212.31
2018-06-15T12:30:15.477Z,98213.48
2018-06-15T12:32:48.662Z,98217.63
2018-06-15T12:35:22.320Z,98211.72
2018-06-15T12:37:55.100Z,98216.05
2018-06-15T12:40:28.368Z,98208.77
2018-06-15T12:43:01.689Z,98212.89
2018-06-15T12:48:27.219Z,98200.17
2018-06-15T12:51:01.792Z,98207.98
2018-06-15T12:53:33.088Z,98204.19
2018-06-15T12:56:05.252Z,98214.31
2018-06-15T12:58:41.348Z,98214.95
2018-06-15T13:01:41.191Z,98210.77
2018-06-15T13:04:12.555Z,98207.90
2018-06-15T13:06:46.110Z,98197.63
2018-06-15T13:09:17.472Z,98198.67
2018-06-15T13:11:48.559Z,98193.20
2018-06-15T13:14:31.293Z,98201.98
2018-06-15T13:17:06.640Z,98200.92
2018-06-15T13:19:37.944Z,98203.70
2018-06-15T13:22:14.351Z,98196.61
2018-06-15T13:24:45.566Z,98190.61
2018-06-15T13:27:19.560Z,98194.59
2018-06-15T13:29:51.544Z,98180.43
2018-06-15T13:32:22.606Z,98177.25
2018-06-15T13:34:53.384Z,98176.55
2018-06-15T13:40:08.901Z,98194.33
2018-06-15T13:42:40.257Z,98195.37
2018-06-15T13:45:12.330Z,98189.12
2018-06-15T13:47:44.567Z,98183.77
2018-06-15T13:50:15.655Z,98182.88
2018-06-15T13:52:48.645Z,98178.66
2018-06-15T13:55:19.759Z,98173.63
2018-06-15T13:57:52.760Z,98171.80
2018-06-15T14:00:23.947Z,98174.44
2018-06-15T14:02:57.891Z,98187.59
2018-06-15T14:05:29.292Z,98186.14
2018-06-15T14:08:00.571Z,98192.84
2018-06-15T14:10:31.660Z,98182.83
2018-06-15T14:13:17.653Z,98179.60
2018-06-15T14:15:52.894Z,98166.03
2018-06-15T14:18:24.794Z,98165.73
2018-06-15T14:21:05.666Z,98162.99
2018-06-15T14:23:36.613Z,98164.42
2018-06-15T14:26:10.406Z,98161.80
2018-06-15T14:28:43.185Z,98164.05
2018-06-15T14:31:14.617Z,98167.52
2018-06-15T14:33:46.280Z,98182.11
2018-06-15T14:36:20.636Z,98187.09
2018-06-15T14:38:57.194Z,98178.73
2018-06-15T14:41:27.908Z,98172.94
2018-06-15T14:44:01.034Z,98163.16
2018-06-15T14:46:43.354Z,98162.27
2018-06-15T14:49:15.219Z,98158.15
2018-06-15T14:51:50.328Z,98157.79
2018-06-15T14:54:22.282Z,98153.05
2018-06-15T14:56:55.224Z,98154.42
2018-06-15T14:59:27.446Z,98146.09
2018-06-15T15:02:03.526Z,98143.92
2018-06-15T15:04:38.569Z,98145.97
2018-06-15T15:07:09.891Z,98151.41
2018-06-15T15:09:43.069Z,98153.78
2018-06-15T15:12:18.663Z,98156.16
2018-06-15T15:14:49.816Z,98174.44
2018-06-15T15:17:22.929Z,98164.00
2018-06-15T15:19:58.860Z,98168.70
2018-06-15T15:22:31.266Z,98166.81
2018-06-15T15:25:08.051Z,98168.92
2018-06-15T15:27:42.109Z,98160.53
2018-06-15T15:33:39.800Z,98158.08
2018-06-15T15:36:13.211Z,98143.55
2018-06-15T15:38:44.541Z,98139.20
2018-06-15T15:41:15.211Z,98135.31
2018-06-15T15:43:46.932Z,98134.45
2018-06-15T15:46:19.764Z,98130.62
2018-06-15T15:48:53.218Z,98122.44
2018-06-15T15:51:25.694Z,98116.15
2018-06-15T15:53:56.437Z,98118.41
2018-06-15T15:56:28.611Z,98116.55
2018-06-15T15:59:00.448Z,98109.62
2018-06-15T16:01:31.266Z,98112.09
2018-06-15T16:04:05.235Z,98104.94
2018-06-15T16:06:36.541Z,98107.16
2018-06-15T16:09:09.204Z,98106.91
2018-06-15T16:11:39.934Z,98112.56
2018-06-15T16:14:15.725Z,98120.03
2018-06-15T16:16:46.850Z,98111.59
2018-06-15T16:19:19.680Z,98107.48
2018-06-15T16:21:51.233Z,98107.78
2018-06-15T16:24:22.407Z,98100.95
2018-06-15T16:26:53.239Z,98103.32
2018-06-15T16:29:23.937Z,98105.98
2018-06-15T16:31:55.037Z,98110.71
2018-06-15T16:34:26.379Z,98104.89
2018-06-15T16:37:02.470Z,98110.23
2018-06-15T16:39:52.097Z,98107.75
2018-06-15T16:45:11.551Z,98106.83
2018-06-15T16:47:45.357Z,98113.86
2018-06-15T16:50:28.335Z,98106.54
2018-06-15T16:53:08.092Z,98114.53
2018-06-15T16:55:46.104Z,98109.87
2018-06-15T16:58:23.681Z,98113.54
2018-06-15T17:00:55.704Z,98110.38
2018-06-15T17:03:28.483Z,98110.19
2018-06-15T17:06:03.799Z,98112.20
2018-06-15T17:08:36.237Z,98103.88
2018-06-15T17:11:11.210Z,98115.15
2018-06-15T17:13:43.216Z,98110.47
2018-06-15T17:16:14.591Z,98114.40
2018-06-15T17:18:53.824Z,98117.00
2018-06-15T17:21:25.896Z,98111.34
2018-06-15T17:24:01.929Z,98118.66
2018-06-15T17:26:33.206Z,98112.96
2018-06-15T17:31:47.544Z,98111.23
2018-06-15T17:34:18.347Z,98115.70
2018-06-15T17:36:51.330Z,98115.47
2018-06-15T17:39:25.709Z,98119.06
2018-06-15T17:41:56.594Z,98119.52
2018-06-15T17:44:28.262Z,98116.34
2018-06-15T17:47:15.217Z,98118.47
2018-06-15T17:49:48.815Z,98114.06
2018-06-15T17:52:23.539Z,98114.03
2018-06-15T17:54:59.231Z,98119.69
2018-06-15T17:57:32.708Z,98117.35
2018-06-15T18:00:06.111Z,98126.25
2018-06-15T18:02:41.293Z,98125.51
2018-06-15T18:05:16.830Z,98124.09
2018-06-15T18:07:54.292Z,98126.48
2018-06-15T18:10:26.388Z,98123.59
2018-06-15T18:13:03.168Z,98129.94
2018-06-15T18:15:38.868Z,98126.70
2018-06-15T18:18:12.467Z,98119.89
2018-06-15T18:20:51.210Z,98128.86
2018-06-15T18:23:28.426Z,98133.78
2018-06-15T18:26:00.095Z,98134.62
2018-06-15T18:28:52.904Z,98128.47
2018-06-15T18:31:29.046Z,98125.05
2018-06-15T18:34:02.584Z,98129.64
2018-06-15T18:37:17.439Z,98136.54
2018-06-15T18:39:51.316Z,98133.95
2018-06-15T18:42:25.101Z,98140.01
2018-06-15T18:44:57.427Z,98139.89
2018-06-15T18:47:29.504Z,98136.58
2018-06-15T18:50:03.228Z,98131.85
2018-06-15T18:52:36.988Z,98128.91
2018-06-15T18:55:12.762Z,98131.38
2018-06-15T18:57:44.395Z,98127.66
2018-06-15T19:00:18.935Z,98133.72
2018-06-15T19:02:56.846Z,98133.57
2018-06-15T19:05:32.085Z,98134.80
2018-06-15T19:08:08.056Z,98128.47
2018-06-15T19:10:42.875Z,98132.73
2018-06-15T19:13:17.864Z,98133.16
2018-06-15T19:16:15.253Z,98139.66
2018-06-15T19:18:49.891Z,98139.72
2018-06-15T19:21:22.235Z,98135.28
2018-06-15T19:23:58.112Z,98129.45
2018-06-15T19:26:32.259Z,98136.31
2018-06-15T19:29:06.061Z,98137.68
2018-06-15T19:31:42.680Z,98135.84
2018-06-15T19:34:16.823Z,98138.58
2018-06-15T19:36:50.502Z,98143.20
2018-06-15T19:42:11.728Z,98142.92
2018-06-15T19:44:43.299Z,98139.15
2018-06-15T19:47:16.473Z,98138.79
2018-06-15T19:49:48.938Z,98140.31
2018-06-15T19:52:29.089Z,98143.23
2018-06-15T19:55:03.498Z,98146.59
2018-06-15T19:57:36.591Z,98144.97
2018-06-15T20:00:10.536Z,98137.17
2018-06-15T20:02:59.556Z,98134.66
2018-06-15T20:05:53.587Z,98142.93
2018-06-15T20:08:32.808Z,98141.04
2018-06-15T20:11:05.986Z,98142.54
2018-06-15T20:13:45.080Z,98150.59
2018-06-15T20:16:18.225Z,98147.88
2018-06-15T20:18:57.668Z,98134.66
2018-06-15T20:21:35.438Z,98150.13
2018-06-15T20:24:18.905Z,98154.38
2018-06-15T20:26:55.743Z,98151.30
2018-06-15T20:32:13.651Z,98158.13
2018-06-15T20:34:45.677Z,98163.81
2018-06-15T20:37:17.588Z,98164.45
2018-06-15T20:39:51.261Z,98166.98
2018-06-15T20:42:24.250Z,98163.55
2018-06-15T20:45:03.384Z,98164.47
2018-06-15T20:47:35.365Z,98174.70
2018-06-15T20:50:11.338Z,98171.59
2018-06-15T20:52:45.724Z,98170.52
2018-06-15T20:55:20.105Z,98175.88
2018-06-15T20:57:51.842Z,98168.51
2018-06-15T21:00:27.639Z,98164.84
2018-06-15T21:03:01.232Z,98169.20
2018-06-15T21:05:38.547Z,98167.07
2018-06-15T21:08:12.104Z,98174.66
2018-06-15T21:10:45.687Z,98169.63
2018-06-15T21:13:20.963Z,98168.81
2018-06-15T21:15:53.528Z,98170.47
2018-06-15T21:18:30.722Z,98166.17
2018-06-15T21:21:10.471Z,98173.39
2018-06-15T21:23:50.310Z,98169.06
2018-06-15T21:29:09.547Z,98175.55
2018-06-15T21:31:46.476Z,98171.30
2018-06-15T21:34:20.060Z,98170.56
2018-06-15T21:36:51.893Z,98168.56
2018-06-15T21:39:25.285Z,98164.72
2018-06-15T21:42:01.282Z,98168.94
2018-06-15T21:44:33.200Z,98156.36
2018-06-15T21:47:10.103Z,98159.61
2018-06-15T21:49:41.165Z,98163.81
2018-06-15T21:52:15.227Z,98160.12
2018-06-15T21:57:57.295Z,98156.18
2018-06-15T22:00:28.906Z,98158.08
2018-06-15T22:03:00.490Z,98159.17
2018-06-15T22:05:36.236Z,98156.80
2018-06-15T22:08:19.452Z,98163.15
2018-06-15T22:10:56.259Z,98154.54
2018-06-15T22:13:45.715Z,98150.33
2018-06-15T22:16:17.942Z,98159.44
2018-06-15T22:18:50.700Z,98164.23
2018-06-15T22:21:23.961Z,98165.20
2018-06-15T22:23:57.620Z,98161.48
2018-06-15T22:26:28.670Z,98166.77
2018-06-15T22:29:06.463Z,98164.98
2018-06-15T22:31:39.717Z,98170.02
2018-06-15T22:34:12.292Z,98162.59
2018-06-15T22:36:43.150Z,98162.59
2018-06-15T22:39:15.296Z,98162.83
2018-06-15T22:41:48.367Z,98168.20
2018-06-15T22:44:22.340Z,98169.42
2018-06-15T22:46:54.253Z,98164.63
2018-06-15T22:49:25.499Z,98161.36
2018-06-15T22:51:56.543Z,98160.65
2018-06-15T22:54:27.572Z,98159.56
2018-06-15T22:57:00.279Z,98164.94
2018-06-15T22:59:32.018Z,98165.78
2018-06-15T23:02:05.319Z,98161.36
2018-06-15T23:04:36.883Z,98156.42
2018-06-15T23:07:08.213Z,98156.80
2018-06-15T23:09:40.289Z,98154.64
2018-06-15T23:12:11.993Z,98154.02
2018-06-15T23:14:42.783Z,98154.02
2018-06-15T23:17:16.695Z,98149.84
2018-06-15T23:19:48.359Z,98149.60
2018-06-15T23:22:20.358Z,98148.77
2018-06-15T23:24:57.191Z,98148.19
2018-06-15T23:27:29.134Z,98149.23
2018-06-15T23:30:00.403Z,98148.76
2018-06-15T23:32:31.933Z,98143.48
2018-06-15T23:35:07.499Z,98142.88
2018-06-15T23:37:40.355Z,98137.84
2018-06-15T23:40:12.885Z,98145.74
2018-06-15T23:42:43.800Z,98134.75
2018-06-15T23:45:14.722Z,98135.56
2018-06-15T23:47:45.574Z,98140.08
2018-06-15T23:50:23.446Z,98134.81
2018-06-15T23:52:54.358Z,98137.45
2018-06-15T23:55:25.353Z,98132.79
2018-06-15T23:57:57.397Z,98136.13
